Time;durP1;ratioP1;P1;durP2;ratioP2;P2;SDS_P1;SDS_P2;PMS_P1;PMS_P2;Temp;Humidity;BMP_temperature;BMP_pressure;BME280_temperature;BME280_humidity;BME280_pressure;Samples;Min_cycle;Max_cycle;Signal;HPM_P1;HPM_P2
2021/12/18 00:00:59;;;;;;;82.25;37.60;;;;;;;;;;5033615;28;20080;-46
2021/12/18 00:03:25;;;;;;;62.78;31.13;;;;;;;;;;5033318;28;20026;-49
2021/12/18 00:05:51;;;;;;;71.63;34.30;;;;;;;;;;5033459;28;20060;-50
2021/12/18 00:08:17;;;;;;;54.25;28.30;;;;;;;;;;5033861;28;20489;-48
2021/12/18 00:10:45;;;;;;;89.82;43.45;;;;;;;;;;5033588;28;20026;-48
2021/12/18 00:13:11;;;;;;;69.85;32.03;;;;;;;;;;5033228;28;20120;-48
2021/12/18 00:15:37;;;;;;;68.25;32.80;;;;;;;;;;5033410;28;20036;-46
2021/12/18 00:18:04;;;;;;;71.47;35.60;;;;;;;;;;5033251;28;20124;-47
2021/12/18 00:20:31;;;;;;;61.72;28.40;;;;;;;;;;5033582;28;20412;-51
2021/12/18 00:22:58;;;;;;;42.80;19.83;;;;;;;;;;5033649;28;20025;-54
2021/12/18 00:25:24;;;;;;;80.90;40.97;;;;;;;;;;5032213;28;20116;-53
2021/12/18 00:27:50;;;;;;;68.35;33.55;;;;;;;;;;5033267;28;20393;-55
2021/12/18 00:30:16;;;;;;;125.65;56.75;;;;;;;;;;5033219;28;20028;-52
2021/12/18 00:32:43;;;;;;;90.13;43.88;;;;;;;;;;5033438;28;20493;-48
2021/12/18 00:35:09;;;;;;;80.13;37.42;;;;;;;;;;5033203;28;20037;-51
2021/12/18 00:37:35;;;;;;;53.25;24.55;;;;;;;;;;5033396;28;20074;-48
2021/12/18 00:40:06;;;;;;;51.40;25.75;;;;;;;;;;5033340;28;20079;-49
2021/12/18 00:45:01;;;;;;;64.07;27.98;;;;;;;;;;5033161;28;20025;-52
2021/12/18 00:47:27;;;;;;;43.30;22.80;;;;;;;;;;5033447;28;20041;-53
2021/12/18 00:49:53;;;;;;;81.68;41.65;;;;;;;;;;5033164;28;20025;-47
2021/12/18 00:52:19;;;;;;;46.83;23.20;;;;;;;;;;5033011;28;20026;-58
2021/12/18 00:54:45;;;;;;;65.47;30.85;;;;;;;;;;5033015;28;20113;-50
2021/12/18 00:57:12;;;;;;;66.70;30.58;;;;;;;;;;5032941;28;20072;-52
2021/12/18 00:59:38;;;;;;;61.67;29.00;;;;;;;;;;5032980;28;20515;-53
2021/12/18 01:02:04;;;;;;;46.80;24.73;;;;;;;;;;5032978;28;20025;-48
2021/12/18 01:04:30;;;;;;;63.95;28.90;;;;;;;;;;5032944;28;20032;-54
2021/12/18 01:06:58;;;;;;;57.80;28.80;;;;;;;;;;5034546;28;20048;-52
2021/12/18 01:09:47;;;;;;;38.92;20.92;;;;;;;;;;5036952;28;20500;-48
2021/12/18 01:12:13;;;;;;;43.47;20.70;;;;;;;;;;5036591;28;20113;-47
2021/12/18 01:15:01;;;;;;;48.55;24.33;;;;;;;;;;5036665;28;20042;-47
2021/12/18 01:25:07;;;;;;;39.22;18.30;;;;;;;;;;5036400;28;20029;-49
2021/12/18 01:27:34;;;;;;;33.25;16.85;;;;;;;;;;5036397;28;20025;-49
2021/12/18 01:30:00;;;;;;;48.47;22.20;;;;;;;;;;5036196;28;20032;-48
2021/12/18 01:32:28;;;;;;;42.80;20.67;;;;;;;;;;5036262;28;20057;-47
2021/12/18 01:34:54;;;;;;;46.30;22.92;;;;;;;;;;5036340;28;20462;-55
2021/12/18 01:37:21;;;;;;;40.25;20.00;;;;;;;;;;5036741;28;20049;-48
2021/12/18 01:39:47;;;;;;;45.35;20.92;;;;;;;;;;5036160;28;20025;-46
2021/12/18 01:53:11;;;;;;;39.70;19.02;;;;;;;;;;5035976;28;20486;-47
2021/12/18 01:55:39;;;;;;;39.25;20.15;;;;;;;;;;5036008;28;20398;-47
2021/12/18 01:58:05;;;;;;;27.13;15.32;;;;;;;;;;5035698;28;20543;-48
2021/12/18 02:00:37;;;;;;;31.70;16.30;;;;;;;;;;5035608;28;20105;-48
2021/12/18 02:03:04;;;;;;;31.70;15.93;;;;;;;;;;5035953;28;20025;-49
2021/12/18 02:05:30;;;;;;;25.55;13.50;;;;;;;;;;5035496;28;20048;-48
2021/12/18 02:07:56;;;;;;;36.15;14.38;;;;;;;;;;5035578;28;20029;-48
2021/12/18 02:10:26;;;;;;;35.13;17.42;;;;;;;;;;5035588;28;20095;-48
2021/12/18 02:21:17;;;;;;;32.25;15.68;;;;;;;;;;4974817;28;20037;-48
2021/12/18 02:23:44;;;;;;;28.13;14.27;;;;;;;;;;4974348;28;20049;-48
2021/12/18 02:26:11;;;;;;;30.88;16.05;;;;;;;;;;4974268;28;20443;-48
2021/12/18 02:28:38;;;;;;;31.42;16.08;;;;;;;;;;4974128;28;20395;-47
2021/12/18 02:31:04;;;;;;;37.65;19.45;;;;;;;;;;4974293;28;20061;-47
2021/12/18 02:33:30;;;;;;;29.42;13.02;;;;;;;;;;4974350;28;20055;-48
2021/12/18 02:35:58;;;;;;;23.75;12.50;;;;;;;;;;4974206;28;20027;-47
2021/12/18 02:38:43;;;;;;;26.02;13.48;;;;;;;;;;4974155;28;20035;-47
2021/12/18 02:43:39;;;;;;;24.55;12.27;;;;;;;;;;4974163;28;20030;-46
2021/12/18 02:46:08;;;;;;;23.55;13.10;;;;;;;;;;4974000;28;20078;-46
2021/12/18 02:48:40;;;;;;;24.77;12.23;;;;;;;;;;4974050;28;20066;-47
2021/12/18 02:51:07;;;;;;;26.20;12.75;;;;;;;;;;4973837;28;20023;-47
2021/12/18 02:53:36;;;;;;;22.92;11.13;;;;;;;;;;4990473;28;20046;-47
2021/12/18 02:56:04;;;;;;;23.02;10.98;;;;;;;;;;5021503;28;20175;-46
2021/12/18 02:58:31;;;;;;;26.67;11.85;;;;;;;;;;5034677;28;20056;-46
2021/12/18 03:00:58;;;;;;;27.05;12.70;;;;;;;;;;5034673;28;20017;-47
2021/12/18 03:03:26;;;;;;;24.05;11.90;;;;;;;;;;5034525;28;20014;-47
2021/12/18 03:06:11;;;;;;;39.38;19.08;;;;;;;;;;5034423;28;20034;-47
2021/12/18 03:27:52;;;;;;;35.47;15.88;;;;;;;;;;4953691;28;20527;-47
2021/12/18 03:30:18;;;;;;;36.58;15.45;;;;;;;;;;4953209;28;20050;-47
2021/12/18 03:32:45;;;;;;;27.00;12.65;;;;;;;;;;4953733;29;20039;-47
2021/12/18 03:35:12;;;;;;;31.55;13.98;;;;;;;;;;4953833;29;20031;-47
2021/12/18 03:37:38;;;;;;;19.65;10.32;;;;;;;;;;4953673;28;20078;-47
2021/12/18 03:40:05;;;;;;;32.42;14.23;;;;;;;;;;4953622;29;20039;-46
2021/12/18 03:42:32;;;;;;;22.08;10.80;;;;;;;;;;4953660;29;20077;-46
2021/12/18 03:44:58;;;;;;;27.45;12.32;;;;;;;;;;4953440;29;20070;-47
2021/12/18 03:47:24;;;;;;;21.48;10.63;;;;;;;;;;4953475;29;20404;-45
2021/12/18 03:49:53;;;;;;;27.02;11.13;;;;;;;;;;4953601;29;20186;-46
2021/12/18 03:52:19;;;;;;;18.60;10.18;;;;;;;;;;4953673;29;20455;-46
2021/12/18 03:54:45;;;;;;;20.52;10.40;;;;;;;;;;4953311;29;20498;-46
2021/12/18 03:57:11;;;;;;;24.95;11.02;;;;;;;;;;4966618;28;20035;-47
2021/12/18 03:59:37;;;;;;;20.42;10.30;;;;;;;;;;4972791;28;20034;-47
2021/12/18 04:02:03;;;;;;;19.45;9.38;;;;;;;;;;4972817;28;20063;-46
2021/12/18 04:04:29;;;;;;;18.77;9.52;;;;;;;;;;4993892;28;20034;-47
2021/12/18 04:06:59;;;;;;;17.60;9.57;;;;;;;;;;5033528;28;20037;-47
2021/12/18 04:09:28;;;;;;;20.17;10.35;;;;;;;;;;5033362;28;20087;-46
2021/12/18 04:11:54;;;;;;;22.45;9.55;;;;;;;;;;5033375;28;20029;-46
2021/12/18 04:14:23;;;;;;;24.30;11.02;;;;;;;;;;5033150;28;20041;-46
2021/12/18 04:16:49;;;;;;;14.18;8.93;;;;;;;;;;5033210;28;20048;-46
2021/12/18 04:19:19;;;;;;;22.48;9.25;;;;;;;;;;5033336;28;20036;-46
2021/12/18 04:21:46;;;;;;;18.40;9.82;;;;;;;;;;5033583;28;20017;-47
2021/12/18 04:24:12;;;;;;;24.30;11.30;;;;;;;;;;5033413;28;20025;-47
2021/12/18 04:26:38;;;;;;;31.65;15.45;;;;;;;;;;5033425;28;20092;-47
2021/12/18 04:29:08;;;;;;;32.40;12.88;;;;;;;;;;5033179;28;20079;-48
2021/12/18 04:31:38;;;;;;;29.95;13.57;;;;;;;;;;5033469;28;20053;-48
2021/12/18 04:34:05;;;;;;;56.83;25.42;;;;;;;;;;5033099;28;20401;-48
2021/12/18 04:36:34;;;;;;;59.97;29.75;;;;;;;;;;5033139;28;20021;-48
2021/12/18 04:39:00;;;;;;;46.00;23.38;;;;;;;;;;5033346;28;20541;-47
2021/12/18 04:41:38;;;;;;;24.42;12.05;;;;;;;;;;5033659;28;20018;-48
2021/12/18 04:44:05;;;;;;;27.00;14.20;;;;;;;;;;5037229;28;20112;-47
2021/12/18 04:46:31;;;;;;;32.40;13.45;;;;;;;;;;5037499;28;20025;-46
2021/12/18 04:48:57;;;;;;;21.63;10.95;;;;;;;;;;5037005;28;20036;-46
2021/12/18 04:51:25;;;;;;;30.75;14.05;;;;;;;;;;5036838;28;20026;-46
2021/12/18 04:53:54;;;;;;;27.77;14.60;;;;;;;;;;5037037;28;20140;-46
2021/12/18 04:56:20;;;;;;;39.97;19.80;;;;;;;;;;5037086;28;20025;-45
2021/12/18 04:58:46;;;;;;;26.85;14.48;;;;;;;;;;5036832;28;20083;-47
2021/12/18 05:01:12;;;;;;;56.38;28.67;;;;;;;;;;5036733;28;20097;-47
2021/12/18 05:03:40;;;;;;;47.67;23.73;;;;;;;;;;5036812;28;20030;-46
2021/12/18 05:06:06;;;;;;;33.30;15.95;;;;;;;;;;5036651;28;20027;-48
2021/12/18 05:08:32;;;;;;;48.35;24.05;;;;;;;;;;5036103;28;20033;-48
2021/12/18 05:10:58;;;;;;;41.42;20.45;;;;;;;;;;5036117;28;20017;-46
2021/12/18 05:13:24;;;;;;;44.03;20.30;;;;;;;;;;5036158;28;20028;-47
2021/12/18 05:15:50;;;;;;;32.28;15.52;;;;;;;;;;5035718;28;20037;-48
2021/12/18 05:18:16;;;;;;;51.25;22.63;;;;;;;;;;5035974;28;20029;-46
2021/12/18 05:20:42;;;;;;;34.25;16.63;;;;;;;;;;5036080;28;20075;-46
2021/12/18 05:23:09;;;;;;;71.85;30.40;;;;;;;;;;5035891;28;20095;-47
2021/12/18 05:25:35;;;;;;;33.22;16.80;;;;;;;;;;5035990;28;20417;-47
2021/12/18 05:28:01;;;;;;;40.35;20.30;;;;;;;;;;5035999;28;20028;-46
2021/12/18 05:30:27;;;;;;;41.70;18.27;;;;;;;;;;5035738;28;20025;-46
2021/12/18 05:32:53;;;;;;;80.57;38.08;;;;;;;;;;5036046;28;20446;-46
2021/12/18 05:35:19;;;;;;;113.15;50.33;;;;;;;;;;5036148;28;20036;-47
2021/12/18 05:37:51;;;;;;;56.15;25.80;;;;;;;;;;5036049;28;20021;-47
2021/12/18 05:40:18;;;;;;;42.38;21.20;;;;;;;;;;5035985;28;20040;-47
2021/12/18 05:42:45;;;;;;;21.08;11.60;;;;;;;;;;5036172;28;20021;-46
2021/12/18 05:45:11;;;;;;;26.85;12.95;;;;;;;;;;5035902;28;20493;-46
2021/12/18 05:47:37;;;;;;;28.83;11.55;;;;;;;;;;5035902;28;20397;-47
2021/12/18 05:50:04;;;;;;;23.13;11.75;;;;;;;;;;5035918;28;20079;-47
2021/12/18 05:52:30;;;;;;;32.70;18.40;;;;;;;;;;5035137;28;20026;-47
2021/12/18 05:54:57;;;;;;;29.33;12.95;;;;;;;;;;5034464;28;20045;-47
2021/12/18 05:57:23;;;;;;;29.55;15.20;;;;;;;;;;5035761;28;20017;-47
2021/12/18 05:59:49;;;;;;;25.83;13.43;;;;;;;;;;5035639;28;20039;-47
2021/12/18 06:02:15;;;;;;;23.48;11.73;;;;;;;;;;5035721;28;20021;-47
2021/12/18 06:04:42;;;;;;;23.33;11.35;;;;;;;;;;5035642;28;20029;-47
2021/12/18 06:07:16;;;;;;;29.35;14.48;;;;;;;;;;5035447;28;20033;-47
2021/12/18 06:09:42;;;;;;;20.58;10.32;;;;;;;;;;5035626;28;20474;-48
2021/12/18 06:12:08;;;;;;;17.70;8.82;;;;;;;;;;5035471;28;20049;-48
2021/12/18 06:14:34;;;;;;;20.83;11.07;;;;;;;;;;5035338;28;20394;-47
2021/12/18 06:17:00;;;;;;;21.70;10.20;;;;;;;;;;5035321;28;20049;-47
2021/12/18 06:19:26;;;;;;;43.60;22.35;;;;;;;;;;5035322;28;20489;-48
2021/12/18 06:21:53;;;;;;;36.85;18.23;;;;;;;;;;5035301;28;20104;-47
2021/12/18 06:24:19;;;;;;;32.47;17.67;;;;;;;;;;5035269;28;20029;-46
2021/12/18 06:26:45;;;;;;;29.48;15.15;;;;;;;;;;5035401;28;20017;-46
2021/12/18 06:29:11;;;;;;;37.92;18.73;;;;;;;;;;5035114;28;20045;-47
2021/12/18 06:31:39;;;;;;;33.05;15.10;;;;;;;;;;5035064;28;20026;-47
2021/12/18 06:34:07;;;;;;;31.95;16.80;;;;;;;;;;5034957;28;20029;-47
2021/12/18 06:36:34;;;;;;;26.02;14.20;;;;;;;;;;5034948;28;20112;-47
2021/12/18 06:39:00;;;;;;;22.05;12.05;;;;;;;;;;5035213;28;20029;-47
2021/12/18 06:41:26;;;;;;;27.88;14.50;;;;;;;;;;5034892;28;20035;-47
2021/12/18 06:43:52;;;;;;;23.90;12.32;;;;;;;;;;5034985;28;20022;-47
2021/12/18 06:46:18;;;;;;;21.23;13.75;;;;;;;;;;5034835;28;20488;-47
2021/12/18 06:48:44;;;;;;;17.77;10.80;;;;;;;;;;5035026;28;20025;-47
2021/12/18 06:51:10;;;;;;;19.02;10.05;;;;;;;;;;5034746;28;20108;-47
2021/12/18 06:53:36;;;;;;;16.85;10.70;;;;;;;;;;5034875;28;20474;-47
2021/12/18 06:56:04;;;;;;;16.55;9.60;;;;;;;;;;5034942;28;20076;-47
2021/12/18 06:58:30;;;;;;;18.27;10.13;;;;;;;;;;5034702;28;20075;-47
2021/12/18 07:00:56;;;;;;;16.58;9.15;;;;;;;;;;5034646;28;20022;-47
2021/12/18 07:03:22;;;;;;;17.73;10.13;;;;;;;;;;5034587;28;20025;-47
2021/12/18 07:05:49;;;;;;;17.67;9.25;;;;;;;;;;5033528;28;20078;-47
2021/12/18 07:08:15;;;;;;;14.23;7.72;;;;;;;;;;5034625;28;20028;-47
2021/12/18 07:10:41;;;;;;;15.07;8.50;;;;;;;;;;5034604;28;20359;-47
2021/12/18 07:13:09;;;;;;;13.73;7.50;;;;;;;;;;5034398;28;20033;-47
2021/12/18 07:15:35;;;;;;;15.70;11.23;;;;;;;;;;5034140;28;20029;-48
2021/12/18 07:18:01;;;;;;;15.18;10.38;;;;;;;;;;5034352;28;20053;-47
2021/12/18 07:20:27;;;;;;;17.90;11.93;;;;;;;;;;5034145;28;20032;-47
2021/12/18 07:22:54;;;;;;;16.80;9.18;;;;;;;;;;5034270;28;20099;-50
2021/12/18 07:25:20;;;;;;;13.98;8.15;;;;;;;;;;5032801;28;20025;-49
2021/12/18 07:27:46;;;;;;;14.77;10.93;;;;;;;;;;5034406;28;20469;-47
2021/12/18 07:30:13;;;;;;;14.25;10.60;;;;;;;;;;5033984;28;20029;-48
2021/12/18 07:32:40;;;;;;;12.00;7.78;;;;;;;;;;5034057;28;20025;-49
2021/12/18 07:35:07;;;;;;;17.27;13.93;;;;;;;;;;5033790;28;20029;-47
2021/12/18 07:37:33;;;;;;;16.20;13.57;;;;;;;;;;5033777;28;20022;-49
2021/12/18 07:39:59;;;;;;;14.52;9.98;;;;;;;;;;5033946;28;20036;-49
2021/12/18 07:42:25;;;;;;;16.58;8.20;;;;;;;;;;5034018;28;20017;-49
2021/12/18 07:44:54;;;;;;;14.07;11.50;;;;;;;;;;5033757;28;20021;-48
2021/12/18 07:47:20;;;;;;;13.50;7.05;;;;;;;;;;5033844;28;20036;-49
2021/12/18 07:49:46;;;;;;;15.35;8.38;;;;;;;;;;5033788;28;20028;-49
2021/12/18 07:52:13;;;;;;;13.43;7.28;;;;;;;;;;5033570;28;20025;-49
2021/12/18 07:54:39;;;;;;;16.10;7.80;;;;;;;;;;5033668;28;20488;-50
2021/12/18 07:57:05;;;;;;;15.30;7.57;;;;;;;;;;5033693;28;20025;-48
2021/12/18 07:59:31;;;;;;;20.48;9.70;;;;;;;;;;5033486;28;20056;-48
2021/12/18 08:01:57;;;;;;;30.35;12.82;;;;;;;;;;5033604;28;20097;-51
2021/12/18 08:04:23;;;;;;;35.97;16.88;;;;;;;;;;5033453;28;20108;-50
2021/12/18 08:06:49;;;;;;;69.75;40.05;;;;;;;;;;5033687;28;20030;-51
2021/12/18 08:09:16;;;;;;;30.20;14.60;;;;;;;;;;5033538;28;20493;-52
2021/12/18 08:11:42;;;;;;;32.58;18.50;;;;;;;;;;5033488;28;20527;-51
2021/12/18 08:14:08;;;;;;;22.20;11.35;;;;;;;;;;5033374;28;20036;-48
2021/12/18 08:16:41;;;;;;;20.42;11.48;;;;;;;;;;5032917;28;20085;-51
2021/12/18 08:19:07;;;;;;;19.05;10.23;;;;;;;;;;5028217;28;20037;-50
2021/12/18 08:21:33;;;;;;;21.65;11.18;;;;;;;;;;5032783;28;20052;-50
2021/12/18 08:23:59;;;;;;;22.02;10.73;;;;;;;;;;5032804;28;20548;-50
2021/12/18 08:26:26;;;;;;;31.65;14.00;;;;;;;;;;5032787;28;20025;-51
2021/12/18 08:28:52;;;;;;;25.73;9.98;;;;;;;;;;5031454;28;20029;-49
2021/12/18 08:31:18;;;;;;;45.63;17.35;;;;;;;;;;5033190;28;20079;-50
2021/12/18 08:33:46;;;;;;;30.73;13.15;;;;;;;;;;5032687;28;20025;-51
2021/12/18 08:36:12;;;;;;;66.18;33.78;;;;;;;;;;5031035;28;20047;-50
2021/12/18 08:38:39;;;;;;;30.05;18.95;;;;;;;;;;5032736;28;20072;-51
2021/12/18 08:41:05;;;;;;;27.85;14.32;;;;;;;;;;5032655;28;20448;-49
2021/12/18 08:43:33;;;;;;;35.10;19.88;;;;;;;;;;5032624;28;20071;-50
2021/12/18 08:45:59;;;;;;;64.07;25.48;;;;;;;;;;5032642;28;20036;-48
2021/12/18 08:48:25;;;;;;;45.08;18.75;;;;;;;;;;5032648;28;20497;-49
2021/12/18 08:50:52;;;;;;;54.08;27.00;;;;;;;;;;5032466;28;20025;-49
2021/12/18 08:53:18;;;;;;;40.70;21.33;;;;;;;;;;5032476;28;21167;-49
2021/12/18 08:55:44;;;;;;;25.10;12.73;;;;;;;;;;5029832;28;20367;-49
2021/12/18 08:58:10;;;;;;;43.60;24.92;;;;;;;;;;5032836;28;20378;-48
2021/12/18 09:00:36;;;;;;;34.75;20.35;;;;;;;;;;5032786;28;20022;-49
2021/12/18 09:03:04;;;;;;;43.10;18.77;;;;;;;;;;5032319;28;20024;-51
2021/12/18 09:05:30;;;;;;;51.67;20.13;;;;;;;;;;5032360;28;20469;-51
2021/12/18 09:07:57;;;;;;;66.72;35.10;;;;;;;;;;5032347;28;20026;-50
2021/12/18 09:10:25;;;;;;;37.13;19.35;;;;;;;;;;5032462;28;20025;-49
2021/12/18 09:12:52;;;;;;;38.25;23.10;;;;;;;;;;5032312;28;20031;-50
2021/12/18 09:15:18;;;;;;;30.70;17.30;;;;;;;;;;5032440;28;20590;-52
2021/12/18 09:17:44;;;;;;;19.95;10.98;;;;;;;;;;5029678;28;20049;-50
2021/12/18 09:20:11;;;;;;;18.88;9.68;;;;;;;;;;5032281;28;20018;-50
2021/12/18 09:22:39;;;;;;;24.27;13.60;;;;;;;;;;5032134;28;20017;-49
2021/12/18 09:25:05;;;;;;;27.40;13.98;;;;;;;;;;5032412;28;20022;-50
2021/12/18 09:27:36;;;;;;;30.38;16.13;;;;;;;;;;5032679;28;20031;-50
2021/12/18 09:30:04;;;;;;;17.92;10.18;;;;;;;;;;5035591;28;20029;-49
2021/12/18 09:32:32;;;;;;;18.70;11.82;;;;;;;;;;5035712;28;20104;-49
2021/12/18 09:34:58;;;;;;;15.60;9.48;;;;;;;;;;5035700;28;20152;-49
2021/12/18 09:37:24;;;;;;;15.77;9.60;;;;;;;;;;5036120;28;20022;-50
2021/12/18 09:39:51;;;;;;;21.50;10.35;;;;;;;;;;5036166;28;20033;-49
2021/12/18 09:42:17;;;;;;;28.88;15.63;;;;;;;;;;5036080;28;20029;-49
2021/12/18 09:44:43;;;;;;;18.45;10.93;;;;;;;;;;5035442;28;20037;-50
2021/12/18 09:47:09;;;;;;;20.05;10.55;;;;;;;;;;5032811;28;20377;-50
2021/12/18 09:49:35;;;;;;;17.33;9.00;;;;;;;;;;5035934;28;20096;-50
2021/12/18 09:52:01;;;;;;;27.30;13.50;;;;;;;;;;5035257;28;20017;-52
2021/12/18 09:54:31;;;;;;;26.65;14.27;;;;;;;;;;5035123;28;20017;-53
2021/12/18 09:56:57;;;;;;;13.43;7.95;;;;;;;;;;5035236;28;20104;-51
2021/12/18 09:59:23;;;;;;;16.80;10.07;;;;;;;;;;5035329;28;20080;-50
2021/12/18 10:01:49;;;;;;;17.52;8.13;;;;;;;;;;5032591;28;20032;-51
2021/12/18 10:04:24;;;;;;;24.75;11.55;;;;;;;;;;5035152;28;20095;-47
2021/12/18 10:06:50;;;;;;;25.92;13.43;;;;;;;;;;5032745;28;20025;-49
2021/12/18 10:09:20;;;;;;;27.17;13.90;;;;;;;;;;5035362;28;20068;-48
2021/12/18 10:11:48;;;;;;;31.27;14.15;;;;;;;;;;5034813;28;20022;-49
2021/12/18 10:14:19;;;;;;;25.88;12.27;;;;;;;;;;5035128;28;20029;-49
2021/12/18 10:16:52;;;;;;;24.65;11.57;;;;;;;;;;5034592;28;20064;-49
2021/12/18 10:19:35;;;;;;;16.42;9.15;;;;;;;;;;5034714;28;20063;-48
2021/12/18 10:22:06;;;;;;;17.77;9.18;;;;;;;;;;5031475;28;20033;-48
2021/12/18 10:24:32;;;;;;;;;;;;;;;;;;5035623;28;20037;-50
2021/12/18 10:26:58;;;;;;;19.52;10.25;;;;;;;;;;5035167;28;19905;-49
2021/12/18 10:29:37;;;;;;;16.75;8.68;;;;;;;;;;5035166;28;20547;-51
2021/12/18 10:32:11;;;;;;;22.40;8.93;;;;;;;;;;5034880;28;20132;-48
2021/12/18 10:34:38;;;;;;;13.85;7.75;;;;;;;;;;5032633;28;20026;-50
2021/12/18 10:37:15;;;;;;;15.90;8.43;;;;;;;;;;5034722;28;20043;-48
2021/12/18 10:39:44;;;;;;;18.02;10.27;;;;;;;;;;5033038;28;20513;-48
2021/12/18 10:42:19;;;;;;;19.50;8.57;;;;;;;;;;5033036;28;20052;-51
2021/12/18 10:44:59;;;;;;;18.88;11.02;;;;;;;;;;5034561;28;20105;-48
2021/12/18 10:47:25;;;;;;;19.73;8.75;;;;;;;;;;5033467;28;20026;-55
2021/12/18 10:49:52;;;;;;;14.35;6.60;;;;;;;;;;5034159;28;20029;-51
2021/12/18 10:52:18;;;;;;;15.40;7.85;;;;;;;;;;5034235;28;20084;-47
2021/12/18 10:54:45;;;;;;;13.38;7.10;;;;;;;;;;5034188;28;20448;-54
2021/12/18 10:57:22;;;;;;;24.13;12.45;;;;;;;;;;5033865;28;20033;-52
2021/12/18 10:59:53;;;;;;;22.13;11.38;;;;;;;;;;5034285;28;20021;-48
2021/12/18 11:02:19;;;;;;;16.67;9.57;;;;;;;;;;5034059;28;20010;-47
2021/12/18 11:04:45;;;;;;;13.43;7.45;;;;;;;;;;5034057;28;20547;-49
2021/12/18 11:07:30;;;;;;;18.65;9.73;;;;;;;;;;5031418;28;20076;-50
2021/12/18 11:10:18;;;;;;;20.67;9.27;;;;;;;;;;5033869;28;20033;-50
2021/12/18 11:15:29;;;;;;;34.58;16.08;;;;;;;;;;5033658;28;20048;-48
2021/12/18 11:17:56;;;;;;;29.27;13.07;;;;;;;;;;5033279;28;20142;-47
2021/12/18 11:20:22;;;;;;;23.10;11.07;;;;;;;;;;5033748;28;20057;-48
2021/12/18 11:22:54;;;;;;;33.83;14.57;;;;;;;;;;5033635;28;20068;-47
2021/12/18 11:25:22;;;;;;;23.75;11.23;;;;;;;;;;5033578;28;20462;-47
2021/12/18 11:27:48;;;;;;;24.13;12.00;;;;;;;;;;5032078;28;20039;-48
2021/12/18 11:30:17;;;;;;;21.52;11.52;;;;;;;;;;5033630;28;20080;-49
2021/12/18 11:32:45;;;;;;;21.02;9.80;;;;;;;;;;5033338;28;20036;-46
2021/12/18 11:35:13;;;;;;;21.83;10.32;;;;;;;;;;5033386;28;20033;-46
2021/12/18 11:37:50;;;;;;;21.52;9.48;;;;;;;;;;5033437;28;20017;-46
2021/12/18 11:40:18;;;;;;;22.73;9.55;;;;;;;;;;5031937;28;20070;-47
2021/12/18 11:42:44;;;;;;;27.48;10.25;;;;;;;;;;5033296;28;20021;-47
2021/12/18 11:45:11;;;;;;;19.25;8.63;;;;;;;;;;5027271;28;20450;-49
2021/12/18 11:47:41;;;;;;;20.90;8.63;;;;;;;;;;5002802;28;20026;-48
2021/12/18 11:50:21;;;;;;;21.52;9.57;;;;;;;;;;5002937;28;20682;-49
2021/12/18 11:52:59;;;;;;;16.58;9.05;;;;;;;;;;5019905;28;20049;-48
2021/12/18 11:55:27;;;;;;;17.75;9.38;;;;;;;;;;5003315;28;20037;-51
2021/12/18 11:57:59;;;;;;;19.23;9.45;;;;;;;;;;5003128;28;20047;-51
2021/12/18 12:00:25;;;;;;;16.17;7.82;;;;;;;;;;5002901;28;20442;-49
2021/12/18 12:02:52;;;;;;;19.25;7.32;;;;;;;;;;5003181;28;20025;-49
2021/12/18 12:05:20;;;;;;;15.02;8.23;;;;;;;;;;5003032;28;20031;-49
2021/12/18 12:07:46;;;;;;;14.75;6.25;;;;;;;;;;5003032;28;20072;-48
2021/12/18 12:10:45;;;;;;;13.90;6.78;;;;;;;;;;5003392;28;20519;-51
2021/12/18 12:13:09;;;;;;;13.43;5.95;;;;;;;;;;5002843;28;20032;-50
2021/12/18 12:15:35;;;;;;;16.13;7.47;;;;;;;;;;5003247;28;20041;-51
2021/12/18 12:18:06;;;;;;;28.35;8.18;;;;;;;;;;5002693;28;20593;-49
2021/12/18 12:20:39;;;;;;;15.35;6.68;;;;;;;;;;5003221;28;20623;-48
2021/12/18 12:23:07;;;;;;;11.43;4.65;;;;;;;;;;5002998;28;20417;-51
2021/12/18 12:25:35;;;;;;;8.00;4.80;;;;;;;;;;5003371;28;20037;-48
2021/12/18 12:28:03;;;;;;;8.48;4.93;;;;;;;;;;5002870;28;20107;-51
2021/12/18 12:30:44;;;;;;;14.95;5.40;;;;;;;;;;5002431;28;20044;-51
2021/12/18 12:33:13;;;;;;;12.35;5.65;;;;;;;;;;5003175;28;20034;-49
2021/12/18 12:35:59;;;;;;;16.58;6.03;;;;;;;;;;5002834;28;20034;-52
2021/12/18 12:38:33;;;;;;;13.50;6.00;;;;;;;;;;5003027;28;21074;-49
2021/12/18 12:41:19;;;;;;;10.05;4.50;;;;;;;;;;5002829;28;20493;-49
2021/12/18 12:43:45;;;;;;;8.23;3.85;;;;;;;;;;5003143;28;20321;-49
2021/12/18 12:46:16;;;;;;;11.43;5.18;;;;;;;;;;5002616;28;20034;-53
2021/12/18 12:48:59;;;;;;;8.65;5.07;;;;;;;;;;5002931;28;20211;-50
2021/12/18 12:51:25;;;;;;;10.48;4.72;;;;;;;;;;5002155;28;20044;-47
2021/12/18 12:53:52;;;;;;;8.93;4.10;;;;;;;;;;5002654;28;20175;-49
2021/12/18 12:56:20;;;;;;;9.50;5.25;;;;;;;;;;5002655;28;20175;-47
2021/12/18 12:58:46;;;;;;;22.88;11.93;;;;;;;;;;5002736;28;20112;-50
2021/12/18 13:01:17;;;;;;;21.77;10.95;;;;;;;;;;5002684;28;20025;-49
2021/12/18 13:03:47;;;;;;;19.48;8.65;;;;;;;;;;5004806;28;20029;-50
2021/12/18 13:06:16;;;;;;;23.83;9.30;;;;;;;;;;5023375;28;21143;-49
2021/12/18 13:08:43;;;;;;;12.20;6.85;;;;;;;;;;5006050;28;20525;-51
2021/12/18 13:11:16;;;;;;;16.58;8.38;;;;;;;;;;5006555;28;20030;-46
2021/12/18 13:13:42;;;;;;;12.80;6.65;;;;;;;;;;5006256;28;20032;-52
2021/12/18 13:16:16;;;;;;;17.52;7.82;;;;;;;;;;5005940;28;21122;-49
2021/12/18 13:18:49;;;;;;;15.32;6.85;;;;;;;;;;5005957;28;20045;-47
2021/12/18 13:21:16;;;;;;;15.30;6.47;;;;;;;;;;5006325;28;20026;-50
2021/12/18 13:23:44;;;;;;;13.55;6.28;;;;;;;;;;5006152;28;20759;-47
2021/12/18 13:26:18;;;;;;;10.48;5.63;;;;;;;;;;5005975;28;20424;-49
2021/12/18 13:28:48;;;;;;;11.88;6.10;;;;;;;;;;5005984;28;20052;-50
2021/12/18 13:31:15;;;;;;;8.93;4.85;;;;;;;;;;5005582;28;20025;-52
2021/12/18 13:33:41;;;;;;;17.65;6.60;;;;;;;;;;5005701;28;20025;-48
2021/12/18 13:36:07;;;;;;;11.88;6.10;;;;;;;;;;5005682;28;20532;-48
2021/12/18 13:38:38;;;;;;;10.00;5.15;;;;;;;;;;5006260;28;20029;-51
2021/12/18 13:41:08;;;;;;;13.60;6.00;;;;;;;;;;5004890;28;20304;-49
2021/12/18 13:43:34;;;;;;;15.70;6.70;;;;;;;;;;5005505;28;20107;-48
2021/12/18 13:46:07;;;;;;;17.10;7.63;;;;;;;;;;5005317;28;20037;-47
2021/12/18 13:48:41;;;;;;;17.95;6.88;;;;;;;;;;5005333;28;20037;-47
2021/12/18 13:51:11;;;;;;;15.05;7.30;;;;;;;;;;5005617;28;20026;-48
2021/12/18 13:54:00;;;;;;;22.02;7.47;;;;;;;;;;5005063;28;20091;-46
2021/12/18 13:56:32;;;;;;;17.25;8.23;;;;;;;;;;5004959;28;20443;-51
2021/12/18 13:58:58;;;;;;;19.98;9.30;;;;;;;;;;5005437;28;20083;-49
2021/12/18 14:01:25;;;;;;;18.55;8.73;;;;;;;;;;5005167;28;20091;-49
2021/12/18 14:03:53;;;;;;;20.25;8.90;;;;;;;;;;5004880;28;20107;-47
2021/12/18 14:06:19;;;;;;;18.50;8.75;;;;;;;;;;5004919;28;20046;-48
2021/12/18 14:08:47;;;;;;;24.20;11.35;;;;;;;;;;5005485;28;20088;-51
2021/12/18 14:11:14;;;;;;;25.55;13.40;;;;;;;;;;5007753;28;20379;-49
2021/12/18 14:13:42;;;;;;;29.05;13.68;;;;;;;;;;5004494;28;20037;-49
2021/12/18 14:16:09;;;;;;;26.25;13.15;;;;;;;;;;5004442;28;20088;-50
2021/12/18 14:18:37;;;;;;;24.00;13.30;;;;;;;;;;5005323;28;20702;-50
2021/12/18 14:21:03;;;;;;;36.80;17.40;;;;;;;;;;5004976;28;20025;-50
2021/12/18 14:23:30;;;;;;;42.20;19.38;;;;;;;;;;5004576;28;20552;-47
2021/12/18 14:26:18;;;;;;;42.00;20.63;;;;;;;;;;5002356;28;20072;-48
2021/12/18 14:28:44;;;;;;;30.40;14.63;;;;;;;;;;5004595;28;20041;-48
2021/12/18 14:31:23;;;;;;;80.00;41.10;;;;;;;;;;5004585;28;20025;-48
2021/12/18 14:33:57;;;;;;;30.55;14.50;;;;;;;;;;5005040;28;20076;-47
2021/12/18 14:36:43;;;;;;;25.83;13.43;;;;;;;;;;5004180;28;20465;-48
2021/12/18 14:39:16;;;;;;;25.55;13.52;;;;;;;;;;5004373;28;20053;-49
2021/12/18 14:41:53;;;;;;;29.33;13.68;;;;;;;;;;5004405;28;20404;-49
2021/12/18 14:44:19;;;;;;;23.77;12.30;;;;;;;;;;5004079;28;20395;-50
2021/12/18 14:46:45;;;;;;;21.80;12.27;;;;;;;;;;5004366;28;20593;-48
2021/12/18 14:49:12;;;;;;;24.00;13.60;;;;;;;;;;5004617;28;20022;-48
2021/12/18 14:51:38;;;;;;;27.58;13.52;;;;;;;;;;5004029;28;20059;-49
2021/12/18 14:54:06;;;;;;;31.13;17.58;;;;;;;;;;5004674;28;20091;-47
2021/12/18 14:56:32;;;;;;;42.72;19.65;;;;;;;;;;5003860;28;20045;-49
2021/12/18 14:58:58;;;;;;;38.42;18.52;;;;;;;;;;5004647;28;20026;-49
2021/12/18 15:01:24;;;;;;;36.92;18.33;;;;;;;;;;5005148;28;20834;-49
2021/12/18 15:03:52;;;;;;;45.90;22.42;;;;;;;;;;5004693;28;20034;-48
2021/12/18 15:06:21;;;;;;;36.65;19.20;;;;;;;;;;5004766;28;20046;-50
2021/12/18 15:08:51;;;;;;;40.88;21.00;;;;;;;;;;5005310;28;20057;-48
2021/12/18 15:11:28;;;;;;;46.83;22.40;;;;;;;;;;5004230;28;20039;-49
2021/12/18 15:14:00;;;;;;;39.25;19.10;;;;;;;;;;5004642;28;20300;-46
2021/12/18 15:16:30;;;;;;;46.03;21.60;;;;;;;;;;5003772;28;20783;-45
2021/12/18 15:19:00;;;;;;;40.25;19.95;;;;;;;;;;5004425;28;20025;-48
2021/12/18 15:21:29;;;;;;;36.33;17.42;;;;;;;;;;5004636;28;20029;-47